Time;durP1;ratioP1;P1;durP2;ratioP2;P2;SDS_P1;SDS_P2;PMS_P1;PMS_P2;Temp;Humidity;BMP_temperature;BMP_pressure;BME280_temperature;BME280_humidity;BME280_pressure;Samples;Min_cycle;Max_cycle;Signal;HPM_P1;HPM_P2
2022/01/26 00:40:01;;;;;;;28.42;14.85;;;4.70;99.90;;;4.78;83.49;102457.16;5073526;28;20251;-71
2022/01/26 00:42:35;;;;;;;24.52;13.88;;;4.70;99.90;;;4.76;83.60;102450.19;5072244;28;20184;-71
2022/01/26 00:45:04;;;;;;;25.05;15.88;;;4.70;99.90;;;4.76;83.36;102450.19;5073551;28;20176;-72
2022/01/26 00:47:33;;;;;;;28.33;15.38;;;4.70;99.90;;;4.70;83.11;102451.53;5073122;28;20218;-71
2022/01/26 00:50:08;;;;;;;24.70;14.05;;;4.70;99.90;;;4.72;83.88;102444.25;5073324;28;20172;-69
2022/01/26 00:52:40;;;;;;;20.50;14.77;;;4.70;99.90;;;4.81;83.27;102443.47;5072691;28;20202;-68
2022/01/26 00:55:14;;;;;;;23.92;14.63;;;4.70;99.90;;;4.76;82.83;102453.72;5073132;28;20260;-70
2022/01/26 00:57:43;;;;;;;23.23;15.82;;;4.70;99.90;;;4.70;83.36;102445.34;5054503;28;20176;-69
2022/01/26 01:00:17;;;;;;;23.75;16.10;;;4.70;99.90;;;4.68;82.91;102448.16;5072993;28;20192;-69
2022/01/26 01:02:45;;;;;;;27.35;14.30;;;4.70;99.90;;;4.63;83.14;102445.00;5073044;28;20192;-72
2022/01/26 01:05:19;;;;;;;27.13;14.00;;;4.70;99.90;;;4.65;83.45;102440.34;5073012;28;20187;-69
2022/01/26 01:07:52;;;;;;;27.25;15.43;;;4.70;99.90;;;4.71;83.19;102447.91;5072887;28;20325;-69
2022/01/26 01:10:23;;;;;;;29.55;16.08;;;4.70;99.90;;;4.66;83.60;102452.78;5071605;28;20188;-70
2022/01/26 01:12:56;;;;;;;24.42;14.25;;;4.70;99.90;;;4.54;83.47;102450.28;5072273;28;20685;-68
2022/01/26 01:15:27;;;;;;;23.98;14.85;;;4.60;99.90;;;4.54;83.60;102456.50;5072637;28;20628;-68
2022/01/26 01:18:07;;;;;;;24.35;12.93;;;4.60;99.90;;;4.57;83.58;102447.31;5072709;28;20224;-68
2022/01/26 01:21:01;;;;;;;29.35;14.55;;;4.60;99.90;;;4.59;83.58;102456.97;5054615;28;20578;-68
2022/01/26 01:29:15;;;;;;;26.63;15.02;;;4.60;99.90;;;4.39;84.22;102447.00;5036111;28;20315;-68
2022/01/26 01:31:48;;;;;;;29.60;14.50;;;4.50;99.90;;;4.48;84.55;102446.25;5072555;28;20560;-67
2022/01/26 01:34:20;;;;;;;30.30;16.30;;;4.50;99.90;;;4.40;84.36;102442.50;5071992;28;20227;-70
2022/01/26 01:36:52;;;;;;;22.98;14.43;;;4.50;99.90;;;4.41;84.83;102446.84;5072081;28;20176;-69
2022/01/26 01:39:23;;;;;;;24.75;13.57;;;4.40;99.90;;;4.41;84.83;102437.00;5053922;28;20220;-70
2022/01/26 01:41:52;;;;;;;25.90;15.32;;;4.40;99.90;;;4.37;85.06;102440.91;5072974;28;20532;-71
2022/01/26 01:44:20;;;;;;;24.25;14.85;;;4.40;99.90;;;4.35;84.67;102440.19;5071330;28;20211;-68
2022/01/26 01:46:50;;;;;;;28.23;15.57;;;4.40;99.90;;;4.45;84.56;102434.94;5071895;28;20549;-69
2022/01/26 01:49:19;;;;;;;25.23;12.73;;;4.40;99.90;;;4.39;84.99;102436.28;5071810;28;20211;-70
2022/01/26 01:51:53;;;;;;;23.65;14.80;;;4.40;99.90;;;4.46;84.73;102432.09;5070327;28;20212;-70
2022/01/26 01:54:22;;;;;;;25.30;15.30;;;4.40;99.90;;;4.46;84.50;102432.09;5069405;28;20304;-72
2022/01/26 01:56:55;;;;;;;25.70;14.60;;;4.50;99.90;;;4.53;84.77;102432.47;5052605;28;20251;-69
2022/01/26 01:59:25;;;;;;;25.17;13.73;;;4.50;99.90;;;4.43;84.40;102427.00;5070256;28;20318;-69
2022/01/26 02:01:54;;;;;;;25.08;13.45;;;4.40;99.90;;;4.33;84.70;102423.38;5052548;28;20180;-70
2022/01/26 02:04:23;;;;;;;21.55;12.75;;;4.40;99.90;;;4.40;84.87;102418.38;5070612;28;20179;-71
2022/01/26 02:06:53;;;;;;;21.33;12.07;;;4.40;99.90;;;4.40;84.61;102423.72;5072192;28;20187;-69
2022/01/26 02:09:22;;;;;;;23.55;13.13;;;4.40;99.90;;;4.31;84.80;102418.13;5071501;28;20204;-70
2022/01/26 02:11:55;;;;;;;19.08;12.10;;;4.40;99.90;;;4.33;84.90;102420.69;5071448;28;20210;-69
2022/01/26 02:14:28;;;;;;;21.33;13.32;;;4.40;99.90;;;4.29;85.08;102424.59;5070142;28;20191;-70
2022/01/26 02:17:08;;;;;;;20.90;12.05;;;4.30;99.90;;;4.44;84.79;102428.72;5054179;28;20192;-72
2022/01/26 02:19:57;;;;;;;23.85;12.48;;;4.40;99.90;;;4.35;84.40;102421.44;5071490;28;20236;-69
2022/01/26 02:53:30;;;;;;;20.67;11.25;;;4.40;99.90;;;4.40;84.07;102394.25;5024933;28;20232;-70
2022/01/26 02:56:04;;;;;;;23.95;12.50;;;4.40;99.90;;;4.40;83.70;102396.94;5072349;28;20179;-72
2022/01/26 03:01:41;;;;;;;23.75;13.77;;;4.40;99.90;;;4.42;84.23;102390.44;5046016;28;20200;-70
2022/01/26 03:04:17;;;;;;;20.40;12.75;;;4.40;99.90;;;4.32;83.76;102386.81;5071146;28;20186;-70
2022/01/26 03:06:52;;;;;;;25.15;13.50;;;4.40;99.90;;;4.20;84.33;102398.56;5053389;28;20384;-72
2022/01/26 03:09:26;;;;;;;21.83;13.13;;;4.30;99.90;;;4.25;83.77;102391.00;5071830;28;20217;-71
2022/01/26 03:11:57;;;;;;;22.38;13.25;;;4.20;99.90;;;4.17;83.93;102388.06;5071827;28;20201;-71
2022/01/26 03:14:35;;;;;;;23.98;14.75;;;4.20;99.90;;;4.28;83.53;102396.09;5071858;28;20397;-71
2022/01/26 03:17:13;;;;;;;21.13;12.60;;;4.30;99.90;;;4.25;83.67;102391.00;5073510;28;20600;-71
2022/01/26 03:19:45;;;;;;;22.98;13.75;;;4.20;99.90;;;4.25;83.60;102381.13;5091136;28;20206;-71
2022/01/26 03:28:10;;;;;;;22.30;12.68;;;4.30;99.90;;;4.33;83.53;102384.03;5091144;28;20214;-71
2022/01/26 03:28:20;;;;;;;27.13;15.18;;;4.30;99.90;;;4.28;83.02;102380.88;5092362;28;20294;-71
2022/01/26 03:33:54;;;;;;;29.90;15.00;;;4.30;99.90;;;4.32;83.27;102381.47;5081040;28;20203;-71
2022/01/26 03:36:27;;;;;;;28.70;16.17;;;4.30;99.90;;;4.22;83.57;102376.00;5103827;28;20178;-71
2022/01/26 03:39:04;;;;;;;30.15;17.20;;;4.20;99.90;;;4.23;83.42;102371.50;5106491;28;20470;-71
2022/01/26 03:41:39;;;;;;;30.27;15.88;;;4.20;99.90;;;4.16;83.15;102373.84;5093252;28;20618;-70
2022/01/26 03:44:10;;;;;;;27.95;15.70;;;4.20;99.90;;;4.22;83.65;102375.16;5109536;28;20175;-72
2022/01/26 03:46:39;;;;;;;34.13;17.10;;;4.20;99.90;;;4.16;83.65;102373.00;5110966;28;20179;-68
2022/01/26 03:49:10;;;;;;;29.33;16.73;;;4.20;99.90;;;4.17;83.60;102366.63;5109060;28;20231;-70
2022/01/26 03:51:41;;;;;;;27.67;16.00;;;4.20;99.90;;;4.22;83.32;102380.50;5100977;28;20199;-71
2022/01/26 03:54:11;;;;;;;28.70;16.27;;;4.20;99.90;;;4.17;83.54;102377.34;5075737;28;20203;-69
2022/01/26 03:56:40;;;;;;;31.70;16.83;;;4.20;99.90;;;4.07;83.69;102369.19;5079851;28;20548;-70
2022/01/26 03:59:11;;;;;;;28.27;16.70;;;4.20;99.90;;;4.20;83.41;102372.63;5097639;28;20218;-70
2022/01/26 04:01:40;;;;;;;34.00;18.05;;;4.20;99.90;;;4.21;83.27;102373.47;5098656;28;20266;-70
2022/01/26 04:04:10;;;;;;;27.55;17.52;;;4.20;99.90;;;4.15;83.67;102373.97;5098467;28;20227;-72
2022/01/26 04:06:38;;;;;;;32.03;15.98;;;4.20;99.90;;;4.11;83.25;102372.50;5098044;28;20179;-71
2022/01/26 04:09:10;;;;;;;30.85;15.57;;;4.20;99.90;;;4.09;83.73;102366.41;5079597;28;20212;-70
2022/01/26 04:11:41;;;;;;;25.30;14.18;;;4.10;99.90;;;4.19;83.14;102375.41;5077882;28;20194;-73
2022/01/26 04:14:16;;;;;;;25.38;15.15;;;4.20;99.90;;;4.11;82.85;102367.16;5074606;28;20289;-71
2022/01/26 04:16:45;;;;;;;29.33;16.15;;;4.10;99.90;;;4.12;83.15;102368.81;5096570;28;20175;-72
2022/01/26 04:19:14;;;;;;;27.45;15.63;;;4.10;99.90;;;4.12;82.91;102364.31;5096267;28;20211;-72
2022/01/26 04:21:56;;;;;;;35.80;17.23;;;4.10;99.90;;;4.04;83.24;102368.59;5096314;28;20623;-72
2022/01/26 04:24:29;;;;;;;36.95;17.77;;;4.10;99.90;;;4.04;83.37;102365.94;5096107;28;20175;-71
2022/01/26 04:27:01;;;;;;;27.58;14.90;;;4.00;99.90;;;4.07;83.43;102361.16;5095397;28;20182;-72
2022/01/26 04:29:33;;;;;;;35.88;17.40;;;4.00;99.90;;;4.05;83.49;102362.28;5095023;28;20223;-71
2022/01/26 04:32:05;;;;;;;33.22;17.80;;;4.10;99.90;;;4.10;83.01;102370.81;5094134;28;20200;-70
2022/01/26 04:34:35;;;;;;;36.50;15.27;;;4.10;99.90;;;4.08;83.11;102359.34;5094232;28;20234;-69
2022/01/26 04:37:12;;;;;;;30.05;17.10;;;4.10;99.90;;;4.12;83.61;102360.78;5094319;28;20164;-70
2022/01/26 04:39:45;;;;;;;30.52;15.25;;;4.10;99.90;;;4.18;83.29;102357.63;5095991;28;20696;-72
2022/01/26 04:42:18;;;;;;;34.92;18.13;;;4.10;99.90;;;4.08;83.14;102353.97;5097409;28;20171;-71
2022/01/26 04:44:54;;;;;;;33.35;17.65;;;4.10;99.90;;;4.07;83.19;102354.94;5094431;28;20171;-71
2022/01/26 04:47:22;;;;;;;32.97;15.13;;;4.10;99.90;;;4.09;83.16;102358.38;5093580;28;20175;-71
2022/01/26 04:49:50;;;;;;;31.10;18.33;;;4.10;99.90;;;3.98;82.70;102361.06;5094238;28;20183;-71
2022/01/26 04:52:19;;;;;;;38.75;19.15;;;4.00;99.90;;;3.87;83.34;102346.69;5089222;22;20251;-73
2022/01/26 04:54:53;;;;;;;31.38;15.52;;;3.90;99.90;;;4.01;83.18;102355.47;5074858;28;20207;-73
2022/01/26 04:57:23;;;;;;;34.53;18.17;;;4.00;99.90;;;4.11;82.80;102351.06;5075947;28;20249;-73
2022/01/26 04:59:56;;;;;;;33.00;15.60;;;4.10;99.90;;;4.02;83.11;102354.50;5075457;28;20247;-73
2022/01/26 05:05:33;;;;;;;33.28;17.98;;;4.10;99.90;;;3.91;82.64;102350.00;5040923;23;20360;-71
2022/01/26 05:08:01;;;;;;;30.67;16.35;;;4.00;99.90;;;3.91;83.24;102350.88;5015076;28;20175;-71
2022/01/26 05:10:30;;;;;;;30.88;15.95;;;4.00;99.90;;;3.86;82.67;102352.22;5014390;28;20194;-70
2022/01/26 05:12:59;;;;;;;39.10;15.13;;;3.90;99.90;;;3.88;82.96;102342.19;5018359;28;20225;-70
2022/01/26 05:15:29;;;;;;;27.48;14.68;;;3.90;99.90;;;3.77;82.74;102340.41;5036945;28;20229;-71
2022/01/26 05:17:58;;;;;;;34.20;13.93;;;3.80;99.90;;;3.77;82.56;102335.06;5037756;28;20216;-72
2022/01/26 05:20:26;;;;;;;28.98;13.43;;;3.80;99.90;;;3.74;82.73;102335.28;5037669;28;20194;-71
2022/01/26 05:22:55;;;;;;;31.92;16.30;;;3.80;99.90;;;3.77;82.59;102332.38;5036696;28;20193;-71
2022/01/26 05:25:23;;;;;;;25.95;14.57;;;3.80;99.90;;;3.77;82.49;102337.72;5040805;28;20688;-71
2022/01/26 05:27:52;;;;;;;26.88;15.50;;;3.80;99.90;;;3.79;82.45;102341.13;5036317;28;20841;-71
2022/01/26 05:30:21;;;;;;;30.90;14.90;;;3.70;99.90;;;3.76;82.81;102336.03;5034999;28;20194;-72
2022/01/26 05:32:50;;;;;;;27.88;14.98;;;3.80;99.90;;;3.82;82.50;102340.91;5035982;28;20221;-71
2022/01/26 05:35:19;;;;;;;29.35;14.35;;;3.80;99.90;;;3.74;82.91;102337.97;5039554;28;20197;-69
2022/01/26 05:37:48;;;;;;;30.33;15.27;;;3.80;99.90;;;3.73;82.86;102332.72;5045696;28;20227;-70
2022/01/26 05:40:16;;;;;;;30.75;14.32;;;3.80;99.90;;;3.88;82.66;102331.50;5050041;28;20216;-70
2022/01/26 05:42:45;;;;;;;23.00;12.75;;;3.80;99.90;;;3.84;82.63;102328.22;5049051;28;20166;-69
2022/01/26 05:45:23;;;;;;;21.58;12.50;;;3.80;99.90;;;3.75;82.50;102339.66;5048951;28;20174;-69
2022/01/26 05:47:53;;;;;;;24.95;12.80;;;3.80;99.90;;;3.67;82.43;102347.47;5049736;28;20205;-70
2022/01/26 05:50:22;;;;;;;20.33;10.93;;;3.70;99.90;;;3.61;82.20;102341.75;5049167;28;20174;-70
2022/01/26 05:52:51;;;;;;;17.17;10.13;;;3.60;99.90;;;3.63;82.39;102332.59;5050146;28;20176;-70
2022/01/26 05:55:19;;;;;;;25.27;12.15;;;3.60;99.90;;;3.58;82.61;102334.81;5044496;28;20220;-71
2022/01/26 05:57:48;;;;;;;22.23;12.45;;;3.60;99.90;;;3.53;82.84;102337.00;5042685;28;20622;-70
2022/01/26 06:00:16;;;;;;;23.55;12.38;;;3.60;99.90;;;3.52;82.59;102337.13;5037071;28;20227;-69
2022/01/26 06:02:45;;;;;;;19.25;11.90;;;3.50;99.90;;;3.59;82.67;102339.19;5037727;28;20224;-70
2022/01/26 06:05:15;;;;;;;17.02;11.32;;;3.60;99.90;;;3.61;82.78;102321.19;5035567;28;20618;-69
2022/01/26 06:07:43;;;;;;;27.52;12.57;;;3.60;99.90;;;3.60;82.78;102324.81;5034885;28;20185;-69
2022/01/26 06:10:12;;;;;;;18.88;10.55;;;3.60;99.90;;;3.65;82.60;102328.00;5033813;28;20232;-70
2022/01/26 06:12:40;;;;;;;23.35;14.10;;;3.70;99.90;;;3.58;82.39;102332.16;5033216;28;20185;-71
2022/01/26 06:15:09;;;;;;;21.95;11.52;;;3.60;99.90;;;3.62;82.71;102325.56;5032472;28;20201;-71
2022/01/26 06:17:38;;;;;;;24.67;13.07;;;3.60;99.90;;;3.65;82.67;102322.63;5028965;28;20642;-71
2022/01/26 06:20:08;;;;;;;28.33;13.50;;;3.60;99.90;;;3.60;82.63;102316.78;5028911;28;20212;-70
2022/01/26 06:22:40;;;;;;;23.60;12.15;;;3.60;99.90;;;3.58;82.34;102326.78;5030094;28;20201;-71
2022/01/26 06:25:10;;;;;;;23.80;12.57;;;3.60;99.90;;;3.46;82.65;102331.28;5031075;28;20212;-71
2022/01/26 06:27:40;;;;;;;26.27;12.40;;;3.50;99.90;;;3.50;82.30;102335.41;5033443;28;20220;-71
2022/01/26 06:30:10;;;;;;;24.13;12.30;;;3.50;99.90;;;3.46;82.33;102333.09;5015607;28;20189;-71
2022/01/26 06:32:40;;;;;;;19.42;11.35;;;3.50;99.90;;;3.53;82.34;102328.13;5032853;28;20193;-70
2022/01/26 06:35:11;;;;;;;23.88;12.50;;;3.50;99.90;;;3.59;82.19;102314.22;5037778;28;20210;-72
2022/01/26 06:37:41;;;;;;;25.83;12.30;;;3.50;99.90;;;3.58;82.48;102313.41;5035212;28;20177;-71
2022/01/26 06:40:10;;;;;;;23.77;14.30;;;3.50;99.90;;;3.57;82.38;102308.16;5036861;28;20193;-71
2022/01/26 06:42:50;;;;;;;22.95;12.77;;;3.60;99.90;;;3.56;81.73;102304.63;5034220;28;20197;-72
2022/01/26 06:45:22;;;;;;;25.33;13.80;;;3.60;99.90;;;3.70;82.08;102300.84;5026916;28;20216;-72
2022/01/26 06:48:25;;;;;;;27.00;14.45;;;3.60;99.90;;;3.62;81.60;102300.63;5032562;28;20189;-71
2022/01/26 06:50:51;;;;;;;28.10;14.65;;;3.60;99.90;;;3.53;82.04;102296.88;5031904;28;20639;-72
2022/01/26 06:53:23;;;;;;;27.63;15.25;;;3.50;99.90;;;3.66;82.04;102305.59;5031854;28;20213;-72
2022/01/26 06:55:52;;;;;;;29.08;15.38;;;3.60;99.90;;;3.68;81.36;102305.50;5032693;28;20692;-72
2022/01/26 06:58:20;;;;;;;28.17;14.77;;;3.70;99.90;;;3.73;81.71;102306.78;5032721;28;20186;-71
2022/01/26 07:00:48;;;;;;;30.63;17.05;;;3.70;99.90;;;3.51;81.33;102309.50;5032570;28;20538;-71
2022/01/26 07:03:17;;;;;;;32.67;15.50;;;3.60;99.90;;;3.65;81.78;102303.91;5030677;28;20219;-71
2022/01/26 07:05:45;;;;;;;44.13;18.77;;;3.60;99.90;;;3.48;81.16;102309.75;5032266;28;20182;-71
2022/01/26 07:08:14;;;;;;;31.63;15.05;;;3.50;99.90;;;3.51;81.17;102314.84;5032168;28;20185;-71
2022/01/26 07:10:47;;;;;;;35.10;17.70;;;3.50;99.90;;;3.44;81.69;102321.66;5032477;28;20198;-71
2022/01/26 07:13:15;;;;;;;38.28;17.33;;;3.50;99.90;;;3.48;81.66;102304.41;5031253;28;20740;-70
2022/01/26 07:21:28;;;;;;;34.63;16.92;;;3.60;99.90;;;3.62;81.26;102316.69;5025319;28;20216;-70
2022/01/26 07:23:58;;;;;;;32.72;15.27;;;3.60;99.90;;;3.52;81.10;102316.56;5031741;28;20279;-69
2022/01/26 07:26:30;;;;;;;36.65;16.33;;;3.60;99.90;;;3.57;81.31;102318.88;5022629;28;20197;-69
2022/01/26 07:29:05;;;;;;;32.47;16.77;;;3.60;99.90;;;3.59;81.30;102323.13;5030394;28;20189;-72
2022/01/26 07:31:36;;;;;;;36.95;17.70;;;3.60;99.90;;;3.65;81.56;102316.44;5030619;28;20205;-71
2022/01/26 07:34:08;;;;;;;34.25;15.35;;;3.60;99.90;;;3.56;81.26;102306.47;5036167;28;20209;-72
2022/01/26 07:36:37;;;;;;;27.98;15.80;;;3.60;99.90;;;3.52;81.38;102319.25;5041758;28;20205;-72
2022/01/26 07:39:09;;;;;;;36.55;15.02;;;3.60;99.90;;;3.61;81.66;102314.97;5035887;28;20186;-70
2022/01/26 07:41:39;;;;;;;30.17;15.75;;;3.60;99.90;;;3.62;81.47;102306.84;5035704;28;20216;-71
2022/01/26 07:44:08;;;;;;;34.90;17.13;;;3.60;99.90;;;3.72;81.40;102318.50;5040399;28;20232;-71
2022/01/26 07:46:37;;;;;;;30.85;15.88;;;3.60;99.90;;;3.61;81.21;102305.13;5039191;28;20177;-73
2022/01/26 07:49:06;;;;;;;32.47;15.90;;;3.60;99.90;;;3.62;81.02;102300.63;5040197;28;20555;-72
2022/01/26 07:51:34;;;;;;;33.90;16.27;;;3.60;99.90;;;3.68;81.13;102300.97;5040529;28;20189;-71
2022/01/26 07:54:03;;;;;;;29.85;16.08;;;3.70;99.90;;;3.64;80.81;102312.91;5039280;28;20208;-70
2022/01/26 07:56:32;;;;;;;33.10;14.95;;;3.60;99.90;;;3.74;80.93;102316.53;5037940;28;20240;-70
2022/01/26 07:59:01;;;;;;;32.88;15.70;;;3.70;99.90;;;3.67;81.16;102315.34;5036834;28;20166;-72
2022/01/26 08:01:30;;;;;;;31.80;16.92;;;3.60;99.90;;;3.81;80.71;102307.06;5035483;28;20200;-69
2022/01/26 08:03:59;;;;;;;29.63;15.30;;;3.70;99.90;;;3.77;80.57;102321.66;5035745;28;20220;-69
2022/01/26 08:06:29;;;;;;;27.15;13.40;;;3.80;99.90;;;3.76;80.54;102313.75;5035875;28;20678;-71
2022/01/26 08:08:58;;;;;;;27.98;17.00;;;3.70;99.90;;;3.85;80.51;102313.84;5035764;28;20208;-71
2022/01/26 08:11:27;;;;;;;26.92;15.63;;;3.80;99.90;;;3.80;80.55;102321.41;5033743;28;20208;-71
2022/01/26 08:13:56;;;;;;;31.73;14.70;;;3.80;99.90;;;3.65;80.63;102328.00;5035460;28;20641;-72
2022/01/26 08:16:26;;;;;;;35.45;16.75;;;3.70;99.90;;;3.62;80.36;102335.44;5034221;28;20232;-71
2022/01/26 08:18:54;;;;;;;27.63;14.57;;;3.70;99.90;;;3.61;80.21;102325.69;5033715;28;20197;-71
2022/01/26 08:21:23;;;;;;;31.25;17.38;;;3.70;99.90;;;3.65;81.22;102316.44;5036104;28;20616;-71
2022/01/26 08:23:51;;;;;;;32.85;15.15;;;3.70;99.90;;;3.73;80.80;102327.38;5036768;28;20213;-71
2022/01/26 08:26:34;;;;;;;33.80;16.20;;;3.70;99.90;;;3.76;80.79;102325.31;5035424;28;20212;-71
2022/01/26 08:29:02;;;;;;;27.35;13.32;;;3.70;99.90;;;3.62;80.96;102320.22;5035379;28;20188;-72
2022/01/26 08:31:32;;;;;;;31.25;16.45;;;3.70;99.90;;;3.70;81.07;102324.94;5035604;28;20178;-72
2022/01/26 08:34:01;;;;;;;33.85;16.00;;;3.60;99.90;;;3.79;80.91;102311.66;5036421;28;20682;-72
2022/01/26 08:36:29;;;;;;;36.65;18.60;;;3.70;99.90;;;4.04;80.72;102301.63;5035008;28;20237;-72
2022/01/26 08:38:57;;;;;;;30.05;16.08;;;3.90;99.90;;;4.01;79.82;102309.94;5035530;28;20672;-71
2022/01/26 08:41:29;;;;;;;35.00;15.10;;;3.90;99.90;;;4.10;79.89;102309.19;5035330;28;20236;-71
2022/01/26 08:43:58;;;;;;;28.85;15.68;;;4.00;99.90;;;4.15;79.75;102310.50;5034833;28;20641;-72
2022/01/26 08:46:26;;;;;;;31.08;14.40;;;4.00;99.90;;;4.12;79.52;102304.53;5033616;28;20607;-72
2022/01/26 08:48:56;;;;;;;32.28;14.40;;;4.10;99.90;;;4.11;79.34;102308.22;5034812;28;20243;-70
2022/01/26 08:51:25;;;;;;;30.55;18.15;;;4.10;99.90;;;4.07;79.19;102304.06;5026725;28;20189;-71
2022/01/26 08:53:54;;;;;;;30.67;14.80;;;4.10;99.90;;;3.98;78.86;102307.50;5034487;28;20652;-70
2022/01/26 08:56:23;;;;;;;24.33;13.35;;;4.00;99.90;;;4.05;79.75;102293.47;5034787;28;20242;-71
2022/01/26 08:59:07;;;;;;;28.00;14.63;;;4.00;99.90;;;4.27;79.06;102308.63;5033970;28;20189;-70
2022/01/26 09:01:36;;;;;;;26.95;14.63;;;4.10;99.90;;;4.21;78.27;102314.50;5033618;28;20200;-71
2022/01/26 09:04:07;;;;;;;29.38;16.10;;;4.20;99.90;;;4.13;79.52;102311.59;5033735;28;20229;-72
2022/01/26 09:06:49;;;;;;;32.25;15.43;;;4.10;99.90;;;4.17;79.11;102329.13;5034248;28;20190;-70
2022/01/26 09:09:20;;;;;;;25.30;13.20;;;4.10;99.90;;;4.08;79.29;102325.38;5031541;28;20185;-70
2022/01/26 09:11:50;;;;;;;30.13;15.80;;;4.10;99.90;;;4.20;79.51;102323.53;5032924;28;20194;-70
2022/01/26 09:14:21;;;;;;;25.63;13.80;;;4.10;99.90;;;4.07;79.29;102328.16;5034014;28;20294;-71
2022/01/26 09:16:53;;;;;;;31.85;14.32;;;4.10;99.90;;;4.09;79.27;102323.53;5033708;28;20209;-72
2022/01/26 09:19:30;;;;;;;33.03;13.85;;;4.10;99.90;;;4.10;79.39;102315.41;5033697;28;20256;-71
2022/01/26 09:22:04;;;;;;;32.33;16.27;;;4.10;99.90;;;4.15;79.39;102321.22;5032779;28;20191;-70
2022/01/26 09:24:36;;;;;;;31.27;15.40;;;4.10;99.90;;;4.21;79.29;102325.22;5034091;28;20217;-71
2022/01/26 09:27:08;;;;;;;19.08;12.35;;;4.20;99.90;;;4.21;79.39;102327.91;5033790;28;20201;-71
2022/01/26 09:29:37;;;;;;;28.77;13.05;;;4.10;99.90;;;4.17;79.74;102323.75;5032831;28;20268;-72
2022/01/26 09:32:08;;;;;;;28.42;14.55;;;4.10;99.90;;;4.26;78.73;102329.22;5020454;28;20193;-71
2022/01/26 09:34:39;;;;;;;22.80;12.40;;;4.20;99.90;;;4.21;78.38;102322.56;5031452;28;20274;-71
2022/01/26 09:37:13;;;;;;;28.95;14.55;;;4.20;99.90;;;4.13;79.05;102322.31;5033063;28;20587;-71
2022/01/26 09:39:45;;;;;;;23.88;12.38;;;4.20;99.90;;;4.27;79.33;102305.94;5030726;28;20221;-72
2022/01/26 09:42:15;;;;;;;22.10;12.88;;;4.20;99.90;;;4.30;78.14;102306.56;5031964;28;20182;-73
2022/01/26 09:44:44;;;;;;;22.10;13.70;;;4.30;99.90;;;4.16;79.00;102317.56;5033957;28;20209;-70
2022/01/26 09:47:13;;;;;;;27.48;14.52;;;4.20;99.90;;;4.29;78.53;102322.75;5034115;28;20223;-73
2022/01/26 09:49:44;;;;;;;27.73;14.15;;;4.30;99.90;;;4.23;79.35;102312.53;5033955;28;20562;-71
2022/01/26 09:52:20;;;;;;;20.38;12.57;;;4.20;99.90;;;4.14;79.24;102302.59;5048793;28;20189;-71
2022/01/26 09:54:49;;;;;;;22.30;11.52;;;4.20;99.90;;;4.21;79.39;102314.50;5033609;28;20685;-71
2022/01/26 09:57:29;;;;;;;26.20;13.25;;;4.10;99.90;;;4.35;79.77;102327.63;5033654;28;20648;-72
2022/01/26 09:59:57;;;;;;;23.38;13.20;;;4.20;99.90;;;4.22;78.69;102330.44;5032230;28;20182;-72
2022/01/26 10:02:32;;;;;;;21.58;11.50;;;4.20;99.90;;;3.99;78.68;102335.97;5030827;28;20192;-70
2022/01/26 10:05:07;;;;;;;23.23;13.15;;;4.10;99.90;;;4.02;79.36;102330.41;5028958;28;20323;-71
2022/01/26 10:07:48;;;;;;;36.67;19.67;;;4.10;99.90;;;4.21;79.77;102323.38;5033837;28;20605;-70
2022/01/26 10:16:05;;;;;;;20.65;12.70;;;4.30;99.90;;;4.36;79.05;102334.66;5032373;28;20200;-70
2022/01/26 10:18:41;;;;;;;27.65;11.70;;;4.30;99.90;;;4.31;78.34;102332.38;5030919;28;20194;-70
2022/01/26 10:21:24;;;;;;;20.33;11.57;;;4.30;99.90;;;4.43;77.97;102329.66;5029938;28;20186;-70
2022/01/26 10:23:55;;;;;;;22.33;12.23;;;4.40;99.90;;;4.52;77.71;102327.06;5031971;28;20216;-69
2022/01/26 10:26:24;;;;;;;21.48;11.90;;;4.40;99.90;;;4.71;76.88;102329.03;5032166;28;20568;-70
2022/01/26 10:28:56;;;;;;;15.98;9.90;;;4.60;99.90;;;4.58;75.41;102329.22;5032446;28;20619;-70
2022/01/26 10:31:31;;;;;;;19.50;9.77;;;4.50;99.90;;;4.65;75.10;102317.00;5030897;28;21368;-70
2022/01/26 10:34:12;;;;;;;15.43;8.73;;;4.60;99.90;;;4.67;75.68;102322.25;5032214;28;20217;-71
2022/01/26 10:36:44;;;;;;;16.15;8.80;;;4.60;99.90;;;4.67;74.71;102317.72;5030742;28;20759;-71
2022/01/26 10:39:20;;;;;;;14.32;10.30;;;4.60;99.90;;;4.50;75.13;102321.00;5032393;28;20224;-71
2022/01/26 10:41:54;;;;;;;16.05;9.50;;;4.50;99.90;;;4.65;75.49;102318.81;5025960;28;20197;-70
2022/01/26 10:44:31;;;;;;;28.77;12.93;;;4.60;99.90;;;4.27;76.35;102320.19;5032444;28;20237;-70
2022/01/26 10:47:03;;;;;;;14.93;9.43;;;4.40;99.90;;;4.31;76.59;102315.44;5028869;28;20263;-70
2022/01/26 10:49:55;;;;;;;24.83;10.88;;;4.40;99.90;;;4.33;76.18;102326.88;5029530;28;20182;-70
2022/01/26 10:52:35;;;;;;;13.73;8.98;;;4.30;99.90;;;4.26;76.46;102323.03;5031608;28;20217;-70
2022/01/26 10:55:06;;;;;;;14.50;9.80;;;4.30;99.90;;;4.14;76.31;102313.31;5029981;28;20181;-71
2022/01/26 10:57:40;;;;;;;16.20;10.32;;;4.20;99.90;;;4.19;76.94;102317.31;5032206;28;20202;-71
2022/01/26 11:00:09;;;;;;;15.30;8.90;;;4.20;99.90;;;4.17;76.72;102318.41;5032686;28;20185;-70
2022/01/26 11:02:40;;;;;;;15.23;9.73;;;4.20;99.90;;;3.92;76.75;102324.94;5032006;28;20188;-70
2022/01/26 11:05:09;;;;;;;15.43;9.93;;;4.00;99.90;;;3.93;76.76;102315.91;5044582;22;20236;-71
2022/01/26 11:07:41;;;;;;;13.40;9.27;;;4.00;99.90;;;3.99;76.87;102323.44;5020793;28;20190;-69
2022/01/26 11:10:12;;;;;;;15.50;9.70;;;4.00;99.90;;;4.08;77.16;102325.38;5017747;28;20193;-70
2022/01/26 11:12:43;;;;;;;17.65;8.65;;;4.10;99.90;;;3.88;76.84;102321.63;5015350;28;20221;-70
2022/01/26 11:15:15;;;;;;;15.45;9.18;;;4.00;99.90;;;3.77;77.44;102320.81;5021542;28;20689;-70
2022/01/26 11:17:46;;;;;;;15.05;9.15;;;3.90;99.90;;;3.82;78.03;102321.28;5018400;28;20229;-71
2022/01/26 11:20:19;;;;;;;13.63;8.70;;;3.80;99.90;;;3.74;78.33;102313.88;5015447;28;20205;-70
2022/01/26 11:22:51;;;;;;;16.23;8.75;;;3.80;99.90;;;3.72;78.57;102318.50;5014507;28;20569;-70
2022/01/26 11:25:21;;;;;;;13.93;8.55;;;3.80;99.90;;;3.77;78.28;102316.31;5034083;28;20575;-70
2022/01/26 11:27:52;;;;;;;11.30;7.50;;;3.80;99.90;;;3.76;78.01;102324.47;5023771;28;20190;-71
2022/01/26 11:30:29;;;;;;;16.88;9.32;;;3.80;99.90;;;3.68;78.35;102306.31;5034741;28;20255;-68
2022/01/26 11:33:00;;;;;;;14.65;8.55;;;3.70;99.90;;;3.73;78.12;102303.25;5012941;28;20197;-71
2022/01/26 11:35:32;;;;;;;15.05;8.52;;;3.70;99.90;;;3.70;77.78;102306.19;5019172;28;20259;-70
2022/01/26 11:38:15;;;;;;;12.18;7.65;;;3.80;99.90;;;3.75;77.48;102302.19;5022385;28;20201;-70
2022/01/26 11:46:29;;;;;;;20.85;8.10;;;3.50;99.90;;;3.54;77.58;102295.00;5014607;28;20186;-70
2022/01/26 11:49:07;;;;;;;11.95;7.90;;;3.50;99.90;;;3.52;77.50;102299.66;5014617;28;20186;-70
2022/01/26 11:51:41;;;;;;;15.07;8.07;;;3.50;99.90;;;3.41;77.73;102292.47;5012697;28;20205;-70
2022/01/26 11:54:14;;;;;;;14.15;8.10;;;3.50;99.90;;;3.36;77.70;102300.00;5023062;28;20221;-69
2022/01/26 11:57:03;;;;;;;13.43;9.00;;;3.40;99.90;;;3.57;77.77;102292.09;5015580;28;20534;-69
2022/01/26 11:59:35;;;;;;;15.32;9.50;;;3.50;99.90;;;3.42;77.90;102278.97;5034698;28;20219;-69
2022/01/26 12:02:09;;;;;;;19.42;8.27;;;3.50;99.90;;;3.45;77.84;102278.72;5022145;28;20417;-69
2022/01/26 12:04:38;;;;;;;13.88;9.50;;;3.50;99.90;;;3.37;78.04;102270.47;5014791;28;20233;-70
2022/01/26 12:07:18;;;;;;;16.08;8.60;;;3.40;99.90;;;3.27;77.85;102271.31;5034728;28;20268;-71
2022/01/26 12:09:47;;;;;;;16.67;8.98;;;3.40;99.90;;;3.24;77.87;102266.22;5033830;28;20193;-71
2022/01/26 12:12:18;;;;;;;13.43;8.95;;;3.30;99.90;;;3.22;77.88;102265.47;5020876;28;20185;-72
2022/01/26 12:15:04;;;;;;;15.13;9.30;;;3.30;99.90;;;3.20;78.01;102256.69;5026495;28;20270;-69
2022/01/26 12:17:37;;;;;;;14.70;9.10;;;3.30;99.90;;;3.14;78.29;102262.56;5018315;28;20213;-71